sensor_id;sensor_type;location;lat;lon;timestamp;pressure;altitude;pressure_sealevel;temperature;humidity
71642;BME280;60657;50.122;14.468;2023-02-03T00:01:56;99018.10077090834;;;3.877698939497975;75.32104982070649
71642;BME280;60657;50.122;14.468;2023-02-03T00:05:04;99012.17586200252;;;3.853665980010682;75.62241550316625
71642;BME280;60657;50.122;14.468;2023-02-03T00:08:11;99025.54936119173;;;3.89906157015335;75.17990386816206
71642;BME280;60657;50.122;14.468;2023-02-03T00:11:21;99015.53203379465;;;3.861676966506444;75.46028839551384
71642;BME280;60657;50.122;14.468;2023-02-03T00:14:28;99013.06651295695;;;3.877698939497975;75.56137941557947
71642;BME280;60657;50.122;14.468;2023-02-03T00:17:36;99010.12062061999;;;3.973830777447162;75.21423666742962
71642;BME280;60657;50.122;14.468;2023-02-03T00:20:43;99019.72733947854;;;3.861676966506444;75.54612039368277
71642;BME280;60657;50.122;14.468;2023-02-03T00:23:50;99006.8666401998;;;3.9818417639429313;75.3057907988098
71642;BME280;60657;50.122;14.468;2023-02-03T00:26:58;99014.51837976747;;;4.067292286564431;75.22377355611505
71642;BME280;60657;50.122;14.468;2023-02-03T00:30:06;99011.36442338096;;;4.0485999847409815;75.00061036087587
71642;BME280;60657;50.122;14.468;2023-02-03T00:33:13;99000.0208274521;;;4.110017547875181;74.75455863279164
71642;BME280;60657;50.122;14.468;2023-02-03T00:36:20;98994.9882867855;;;4.104676890211337;74.60769054703593
71642;BME280;60657;50.122;14.468;2023-02-03T00:39:28;99003.17649159321;;;4.013885709925994;74.93194476234073
71642;BME280;60657;50.122;14.468;2023-02-03T00:42:35;99003.91510951075;;;4.021896696421763;74.8480201419089
71642;BME280;60657;50.122;14.468;2023-02-03T00:45:42;99007.90811449698;;;3.992523079270619;75.05592431525139
71642;BME280;60657;50.122;14.468;2023-02-03T00:48:50;99009.5859023426;;;4.037918669413294;74.90905622949569
71642;BME280;60657;50.122;14.468;2023-02-03T00:51:58;99012.35374705977;;;4.152742809185931;74.81368734264133
71642;BME280;60657;50.122;14.468;2023-02-03T00:55:05;99005.64291836038;;;4.053940642404825;75.07499809262227
71642;BME280;60657;50.122;14.468;2023-02-03T00:58:14;99007.5202139846;;;4.112687876707106;74.93194476234073
71642;BME280;60657;50.122;14.468;2023-02-03T01:01:22;99008.30925809368;;;4.155413138017856;74.88998245212481
71642;BME280;60657;50.122;14.468;2023-02-03T01:04:29;99009.5859023426;;;4.03257801174945;75.30197604333563
71642;BME280;60657;50.122;14.468;2023-02-03T01:07:37;99010.32373874373;;;4.00854505226215;75.76356145571069
71642;BME280;60657;50.122;14.468;2023-02-03T01:10:44;99007.1196667739;;;4.037918669413294;75.7769130998703
71642;BME280;60657;50.122;14.468;2023-02-03T01:13:51;99004.55258722964;;;4.0485999847409815;76.05348287174792
71642;BME280;60657;50.122;14.468;2023-02-03T01:17:02;98989.06729864347;;;4.03257801174945;76.14312962539101
71642;BME280;60657;50.122;14.468;2023-02-03T01:20:09;98991.8813507879;;;4.102006561379419;76.10498207064927
71642;BME280;60657;50.122;14.468;2023-02-03T01:23:17;98990.25335282364;;;4.11802853437095;76.13931486991684
71642;BME280;60657;50.122;14.468;2023-02-03T01:26:24;98991.28864937436;;;4.206149385824368;76.20225833524071
71642;BME280;60657;50.122;14.468;2023-02-03T01:29:31;98991.38646460258;;;4.1954680704966805;76.5856412603952
71642;BME280;60657;50.122;14.468;2023-02-03T01:32:38;98978.70944646407;;;4.1073472190432625;77.61943999389639
71642;BME280;60657;50.122;14.468;2023-02-03T01:35:45;98969.33730099881;;;3.9765011062790876;78.91264209964142
71642;BME280;60657;50.122;14.468;2023-02-03T01:38:52;98964.99569820326;;;3.9818417639429313;79.30365453574426
71642;BME280;60657;50.122;14.468;2023-02-03T01:42:00;98968.15052234093;;;3.928435187304494;80.69794766155489
71642;BME280;60657;50.122;14.468;2023-02-03T01:45:08;98949.70195719095;;;3.7281605249103507;81.6249332417792
71642;BME280;60657;50.122;14.468;2023-02-03T01:48:16;98941.06440204388;;;3.634699015793089;82.32684824902724
71642;BME280;60657;50.122;14.468;2023-02-03T01:51:23;98937.50672361274;;;3.562600137331195;83.06309605554284
71642;BME280;60657;50.122;14.468;2023-02-03T01:54:31;98934.26777603471;;;3.37834744792859;83.64866102082857
71642;BME280;60657;50.122;14.468;2023-02-03T01:57:48;98922.05312627657;;;3.3169298847943836;83.7478446631571
71642;BME280;60657;50.122;14.468;2023-02-03T02:01:02;98912.20116507592;;;3.1460288395513842;84.75494010833906
71642;BME280;60657;50.122;14.468;2023-02-03T02:04:09;98899.72877384502;;;3.1193255512321656;84.99145494773785
71642;BME280;60657;50.122;14.468;2023-02-03T02:07:18;98881.4940779695;;;3.033875028610666;85.37483787289234
71642;BME280;60657;50.122;14.468;2023-02-03T02:10:25;98873.11049751681;;;2.9938200961318344;85.39009689478904
71642;BME280;60657;50.122;14.468;2023-02-03T02:13:34;98866.92396072687;;;2.8843366140230415;85.81162737468529
71642;BME280;60657;50.122;14.468;2023-02-03T02:16:44;98865.60257959203;;;2.6867322804608236;86.24841687647822
71642;BME280;60657;50.122;14.468;2023-02-03T02:21:15;98871.1462677944;;;2.6920729381246673;86.27130540932326
71642;BME280;60657;50.122;14.468;2023-02-03T02:25:01;98856.05392581405;;;2.5906004425116365;86.78820477607385
71642;BME280;60657;50.122;14.468;2023-02-03T02:28:36;98844.64325085498;;;2.63866636148623;86.53643091477836
71642;BME280;60657;50.122;14.468;2023-02-03T02:32:03;98864.78275706377;;;2.433051041428243;86.8988326848249
71642;BME280;60657;50.122;14.468;2023-02-03T02:35:24;98868.36302106893;;;2.4170290684367117;86.96559090562295
71642;BME280;60657;50.122;14.468;2023-02-03T02:38:48;98850.69593812141;;;2.243457694361794;87.52635996032654
71642;BME280;60657;50.122;14.468;2023-02-03T02:42:05;98844.10021704134;;;2.2407873655298687;87.68657969024186
71642;BME280;60657;50.122;14.468;2023-02-03T02:45:21;98822.74924118214;;;2.278171969176775;87.76287479972534
71642;BME280;60657;50.122;14.468;2023-02-03T02:48:35;98820.79229960387;;;2.037842374303807;88.18249790188449
71642;BME280;60657;50.122;14.468;2023-02-03T02:51:50;98817.83077764019;;;2.2594796673533253;87.8715953307393
71642;BME280;60657;50.122;14.468;2023-02-03T02:55:00;98813.58346920992;;;2.198062104219119;88.09857328145266
71642;BME280;60657;50.122;14.468;2023-02-03T02:58:13;98799.61174971449;;;2.1740291447318256;88.38086518654154
71642;BME280;60657;50.122;14.468;2023-02-03T03:01:25;98791.50718432089;;;2.2301060502021812;88.21683070115206
71642;BME280;60657;50.122;14.468;2023-02-03T03:04:33;98792.23469932233;;;2.1740291447318256;88.062333104448
71642;BME280;60657;50.122;14.468;2023-02-03T03:07:42;98793.18341625626;;;2.243457694361794;88.09666590371558
71642;BME280;60657;50.122;14.468;2023-02-03T03:10:58;98797.99090484623;;;2.1953917753872005;87.96124208438239
71642;BME280;60657;50.122;14.468;2023-02-03T03:14:07;98786.5889680578;;;2.243457694361794;88.19203479056992
71642;BME280;60657;50.122;14.468;2023-02-03T03:17:22;98788.32017146022;;;2.2568093385214;87.83344777599756
71642;BME280;60657;50.122;14.468;2023-02-03T03:20:35;98787.20598297151;;;2.1793698023956694;88.24162661173419
71642;BME280;60657;50.122;14.468;2023-02-03T03:23:48;98788.93757720232;;;2.1580071717402944;88.42473487449455
71642;BME280;60657;50.122;14.468;2023-02-03T03:27:01;98779.71864317903;;;2.125963225757232;88.65743495841916
71642;BME280;60657;50.122;14.468;2023-02-03T03:30:15;98791.06276028167;;;2.1580071717402944;88.7547112230106
71642;BME280;60657;50.122;14.468;2023-02-03T03:33:29;98777.20447448913;;;2.0618753337911073;88.72419317921721
71642;BME280;60657;50.122;14.468;2023-02-03T03:36:39;98761.39327866511;;;2.080567635614557;88.68795300221255
71642;BME280;60657;50.122;14.468;2023-02-03T03:39:53;98761.50396707929;;;2.096589608606088;89.0350957503624
71642;BME280;60657;50.122;14.468;2023-02-03T03:43:04;98759.04540797578;;;2.0992599374380134;89.23727779049364
71642;BME280;60657;50.122;14.468;2023-02-03T03:46:22;98753.40044426177;;;2.096589608606088;89.22201876859694
71642;BME280;60657;50.122;14.468;2023-02-03T03:49:35;98749.37573591074;;;2.0431830319676507;89.22011139085984
71642;BME280;60657;50.122;14.468;2023-02-03T03:52:47;98748.42829187715;;;2.112611581597619;89.09613183794919
71642;BME280;60657;50.122;14.468;2023-02-03T03:55:59;98748.31833488379;;;2.0618753337911073;89.42801556420234
71642;BME280;60657;50.122;14.468;2023-02-03T03:59:11;98735.24299912827;;;2.133974212252994;89.31738765545128
71642;BME280;60657;50.122;14.468;2023-02-03T04:02:23;98730.59787164122;;;2.2114137483787317;89.27542534523538
71642;BME280;60657;50.122;14.468;2023-02-03T04:05:32;98734.51451120507;;;2.139314869916838;89.55962462806134
71642;BME280;60657;50.122;14.468;2023-02-03T04:08:40;98749.48502215742;;;2.1793698023956694;89.47570000762951
71642;BME280;60657;50.122;14.468;2023-02-03T04:11:47;98738.13690284074;;;2.2114137483787317;89.48523689631494
71642;BME280;60657;50.122;14.468;2023-02-03T04:14:54;98727.51727364819;;;2.248798352025638;89.54818036163881
71642;BME280;60657;50.122;14.468;2023-02-03T04:18:02;98732.65024620303;;;2.2381170366979504;89.49286640726329
71642;BME280;60657;50.122;14.468;2023-02-03T04:21:10;98712.45623718893;;;2.374303807125962;89.15907530327306
71642;BME280;60657;50.122;14.468;2023-02-03T04:24:17;98717.53320554517;;;2.425040054932481;89.2124818799115
71642;BME280;60657;50.122;14.468;2023-02-03T04:27:24;98705.44276794743;;;2.5104905775539805;88.98168917372396
71642;BME280;60657;50.122;14.468;2023-02-03T04:54:20;98656.98832516222;;;2.9564354924849283;88.83100633249408
71642;BME280;60657;50.122;14.468;2023-02-03T05:01:07;98636.64776661534;;;3.033875028610666;88.95498588540474
71642;BME280;60657;50.122;14.468;2023-02-03T05:04:14;98601.43732578072;;;3.06324864576181;88.92828259708553
71642;BME280;60657;50.122;14.468;2023-02-03T05:07:22;98605.93998251171;;;3.188754100862134;88.68604562447547
71642;BME280;60657;50.122;14.468;2023-02-03T05:10:29;98610.16607405712;;;3.2448310063324968;88.45716029602502
71642;BME280;60657;50.122;14.468;2023-02-03T05:13:37;98616.94584603028;;;3.2742046234836337;88.63645380331121
71642;BME280;60657;50.122;14.468;2023-02-03T05:16:44;98612.24512429858;;;3.3756771190966646;88.4743266956588
71642;BME280;60657;50.122;14.468;2023-02-03T05:19:51;98619.72475190948;;;3.343633173113602;88.28931105516136
71642;BME280;60657;50.122;14.468;2023-02-03T05:22:59;98610.04905012314;;;3.482490272373539;88.13099870298313
71642;BME280;60657;50.122;14.468;2023-02-03T05:26:06;98613.52530907863;;;3.5652704661631205;87.99938963912413
71642;BME280;60657;50.122;14.468;2023-02-03T05:29:13;98623.6883931294;;;3.6747539482719134;87.79911497673
71642;BME280;60657;50.122;14.468;2023-02-03T05:32:20;98618.22674423433;;;3.7548638132295693;87.56450751506829
71642;BME280;60657;50.122;14.468;2023-02-03T05:35:28;98616.1027607644;;;3.8723582818341313;87.52445258258946
71642;BME280;60657;50.122;14.468;2023-02-03T05:38:35;98609.66897273564;;;3.8883802548256625;87.23453116655223
71642;BME280;60657;50.122;14.468;2023-02-03T05:41:42;98602.35617304407;;;3.8883802548256625;87.34515907530327
71642;BME280;60657;50.122;14.468;2023-02-03T05:44:49;98600.05578635658;;;4.003204394598306;87.09529259174487
71642;BME280;60657;50.122;14.468;2023-02-03T05:47:56;98603.68355457005;;;4.179446097505149;86.82444495307851
71642;BME280;60657;50.122;14.468;2023-02-03T05:51:03;98599.62709016626;;;4.198138399328606;86.99610894941634
71642;BME280;60657;50.122;14.468;2023-02-03T05:54:11;98594.01920468871;;;4.232852674143587;86.93507286182955
71642;BME280;60657;50.122;14.468;2023-02-03T05:57:19;98589.2445656104;;;4.291599908445868;87.12771801327536
71642;BME280;60657;50.122;14.468;2023-02-03T06:00:26;98574.56139802634;;;4.328984512092774;87.41763942931259
71642;BME280;60657;50.122;14.468;2023-02-03T06:03:34;98567.99609170802;;;4.320973525597012;87.72663462272068
71642;BME280;60657;50.122;14.468;2023-02-03T06:06:41;98569.74340635064;;;4.355687800411992;87.7247272449836
71642;BME280;60657;50.122;14.468;2023-02-03T06:09:49;98561.62176465227;;;4.438467994201574;87.25169756618601
71642;BME280;60657;50.122;14.468;2023-02-03T06:12:56;98556.76310687624;;;4.435797665369648;87.27267872129397
71642;BME280;60657;50.122;14.468;2023-02-03T06:16:03;98546.24567121331;;;4.534599832150761;87.1067368581674
71642;BME280;60657;50.122;14.468;2023-02-03T06:19:10;98559.60406259017;;;4.555962462806136;87.07049668116274
71642;BME280;60657;50.122;14.468;2023-02-03T06:22:18;98551.51217965184;;;4.609369039444573;87.04188601510643
71642;BME280;60657;50.122;14.468;2023-02-03T06:25:25;98554.88793211359;;;4.652094300755323;87.01136797131304
71642;BME280;60657;50.122;14.468;2023-02-03T06:28:32;98565.55900432817;;;4.6280613412680225;87.076218814374
71642;BME280;60657;50.122;14.468;2023-02-03T06:31:40;98560.87639954618;;;4.758907454032197;87.01518272678722
71642;BME280;60657;50.122;14.468;2023-02-03T06:34:47;98559.31426650654;;;4.79095140001526;86.76531624322881
71642;BME280;60657;50.122;14.468;2023-02-03T06:37:54;98555.24720191277;;;4.780270084687572;86.84924086366064
71642;BME280;60657;50.122;14.468;2023-02-03T06:41:02;98547.9815885715;;;4.828336003662166;86.87594415197985
71642;BME280;60657;50.122;14.468;2023-02-03T06:44:09;98548.08622991676;;;4.860379949645228;86.6642252231632
71642;BME280;60657;50.122;14.468;2023-02-03T06:47:16;98546.52089633132;;;4.937819485770959;86.71763179980164
71642;BME280;60657;50.122;14.468;2023-02-03T06:50:23;98541.71924905581;;;4.99656672007324;86.64324406805524
71642;BME280;60657;50.122;14.468;2023-02-03T06:53:31;98536.78018161244;;;4.956511787594415;86.6642252231632
71642;BME280;60657;50.122;14.468;2023-02-03T06:56:38;98534.3445084631;;;4.969863431754021;86.7805752651255
71642;BME280;60657;50.122;14.468;2023-02-03T06:59:46;98532.7767036834;;;5.055313954375528;86.6794842450599
71642;BME280;60657;50.122;14.468;2023-02-03T07:02:53;98522.22922605235;;;5.124742504005496;86.56694895857176
71642;BME280;60657;50.122;14.468;2023-02-03T07:06:02;98518.25413197798;;;5.164797436484321;86.46395056076905
71642;BME280;60657;50.122;14.468;2023-02-03T07:09:10;98524.02889069224;;;5.17280842298009;86.6489662012665
71642;BME280;60657;50.122;14.468;2023-02-03T07:12:17;98519.82484196361;;;5.10605020218204;86.58030060273137
71642;BME280;60657;50.122;14.468;2023-02-03T07:15:24;98536.44582308755;;;5.146105134660871;86.5001907377737
71642;BME280;60657;50.122;14.468;2023-02-03T07:18:31;98520.88604447429;;;5.255588616769664;86.45250629434653
71642;BME280;60657;50.122;14.468;2023-02-03T07:21:39;98530.96085011994;;;5.325017166399633;86.21026932173648
71642;BME280;60657;50.122;14.468;2023-02-03T07:24:46;98524.53973462526;;;5.37842374303807;86.14923323414969
71642;BME280;60657;50.122;14.468;2023-02-03T07:27:53;98523.7990206531;;;5.4264896620126635;86.09964141298543
71642;BME280;60657;50.122;14.468;2023-02-03T07:31:00;98519.7212634069;;;5.466544594491495;85.83642328526741
71642;BME280;60657;50.122;14.468;2023-02-03T07:34:08;98518.08390055077;;;5.46387426565957;85.79827573052567
71642;BME280;60657;50.122;14.468;2023-02-03T07:37:16;98519.84384608202;;;5.46387426565957;85.68192568856337
71642;BME280;60657;50.122;14.468;2023-02-03T07:40:23;98514.96109139024;;;5.549324788281069;85.73914702067597
71642;BME280;60657;50.122;14.468;2023-02-03T07:43:30;98523.301178536;;;5.645456626230256;85.66285191119249
71642;BME280;60657;50.122;14.468;2023-02-03T07:46:38;98521.78273438934;;;5.672159914549475;85.65331502250706
71642;BME280;60657;50.122;14.468;2023-02-03T07:49:45;98525.08896137413;;;5.680170901045244;85.88792248416877
71642;BME280;60657;50.122;14.468;2023-02-03T07:52:52;98511.952643697;;;5.669489585717557;86.09582665751125
71642;BME280;60657;50.122;14.468;2023-02-03T07:56:00;98514.42497786062;;;5.69352254520485;85.86884870679789
71642;BME280;60657;50.122;14.468;2023-02-03T07:59:08;98505.36947705316;;;5.706874189364463;86.08056763561456
71642;BME280;60657;50.122;14.468;2023-02-03T08:02:20;98492.26020520482;;;5.733577477683681;85.80971999694819
71642;BME280;60657;50.122;14.468;2023-02-03T08:05:28;98491.51194527505;;;5.797665369649806;85.83070115205615
71642;BME280;60657;50.122;14.468;2023-02-03T08:08:35;98470.86940085443;;;5.77897306782635;85.61135271229114
71642;BME280;60657;50.122;14.468;2023-02-03T08:11:43;98476.78744420507;;;5.808346684977494;85.48928053711757
71642;BME280;60657;50.122;14.468;2023-02-03T08:14:52;98461.9502753278;;;5.789654383154037;85.31761654077974
71642;BME280;60657;50.122;14.468;2023-02-03T08:17:59;98443.96709369902;;;5.872434576943618;85.16884107728694
71642;BME280;60657;50.122;14.468;2023-02-03T08:21:07;98434.93367670712;;;5.992599374380099;85.08491645685511
71642;BME280;60657;50.122;14.468;2023-02-03T08:24:14;98427.59133390411;;;6.0193026626993245;84.82932784008545
71642;BME280;60657;50.122;14.468;2023-02-03T08:27:21;98430.09042673754;;;6.0193026626993245;84.82551308461127
71642;BME280;60657;50.122;14.468;2023-02-03T08:30:30;98418.55603806091;;;6.035324635690856;84.78736552986953
71642;BME280;60657;50.122;14.468;2023-02-03T08:33:37;98419.46459732993;;;6.080720225833524;84.77973601892118
71642;BME280;60657;50.122;14.468;2023-02-03T08:36:44;98435.24075463432;;;6.120775158312355;84.48599984740979
71642;BME280;60657;50.122;14.468;2023-02-03T08:39:54;98418.7807102429;;;6.174181734950793;84.6614785992218
71642;BME280;60657;50.122;14.468;2023-02-03T08:43:01;98411.40735855405;;;6.179522392614636;84.18081940947586
71642;BME280;60657;50.122;14.468;2023-02-03T08:46:09;98413.0971277008;;;6.168841077286949;84.12359807736324
71642;BME280;60657;50.122;14.468;2023-02-03T08:49:18;98409.07685867228;;;6.286335545891511;84.4230563820859
71642;BME280;60657;50.122;14.468;2023-02-03T08:52:26;98403.24793711057;;;6.272983901731898;84.62523842221714
71642;BME280;60657;50.122;14.468;2023-02-03T08:55:34;98413.95401115692;;;6.262302586404211;84.53559166857404
71642;BME280;60657;50.122;14.468;2023-02-03T08:58:45;98413.19303835808;;;6.286335545891511;84.69771877622644
71642;BME280;60657;50.122;14.468;2023-02-03T09:01:52;98407.38768908453;;;6.240939955748836;84.73205157549401
71642;BME280;60657;50.122;14.468;2023-02-03T09:04:59;98394.99234765417;;;6.272983901731898;85.00099183642328
71642;BME280;60657;50.122;14.468;2023-02-03T09:08:07;98404.1043220836;;;6.289005874723429;85.11161974517434
71642;BME280;60657;50.122;14.468;2023-02-03T09:11:15;98393.46716312008;;;6.259632257572292;85.0429541466392
71642;BME280;60657;50.122;14.468;2023-02-03T09:14:24;98398.36979795677;;;6.262302586404211;85.323338673991
71642;BME280;60657;50.122;14.468;2023-02-03T09:17:31;98381.85786741565;;;6.307698176546886;85.26802471961547
71642;BME280;60657;50.122;14.468;2023-02-03T09:20:39;98375.266986695;;;6.321049820706492;85.3366903181506
71642;BME280;60657;50.122;14.468;2023-02-03T09:23:46;98373.64770158194;;;6.387808041504542;84.94758525978484
71642;BME280;60657;50.122;14.468;2023-02-03T09:26:53;98372.00556542506;;;6.366445410849167;84.94186312657358
71642;BME280;60657;50.122;14.468;2023-02-03T09:30:01;98360.57579457303;;;6.473258564126041;84.84077210650797
71642;BME280;60657;50.122;14.468;2023-02-03T09:33:09;98360.48743591749;;;6.307698176546886;84.4402227817197
71642;BME280;60657;50.122;14.468;2023-02-03T09:36:16;98359.78723245516;;;6.449225604638741;84.38872358281834
71642;BME280;60657;50.122;14.468;2023-02-03T09:39:24;98362.3056591046;;;6.4518959334706665;84.10643167772946
71642;BME280;60657;50.122;14.468;2023-02-03T09:43:06;98364.82398693915;;;6.462577248798354;84.23804074158846
71642;BME280;60657;50.122;14.468;2023-02-03T09:46:24;98338.34483313475;;;6.5106431677729475;84.10452429999238
71642;BME280;60657;50.122;14.468;2023-02-03T09:49:36;98323.43215759688;;;6.494621194781416;84.49935149156939
71642;BME280;60657;50.122;14.468;2023-02-03T09:52:47;98315.21773604877;;;6.526665140764479;84.52224002441443
71642;BME280;60657;50.122;14.468;2023-02-03T09:55:57;98324.200384342;;;6.486610208285647;84.77401388570992
71642;BME280;60657;50.122;14.468;2023-02-03T09:59:05;98315.92339504231;;;6.43320363164721;84.6748302433814
71642;BME280;60657;50.122;14.468;2023-02-03T10:02:20;98297.02112347438;;;6.49996185244526;85.02578774700542
71642;BME280;60657;50.122;14.468;2023-02-03T10:05:43;98287.16282523373;;;6.491950865949491;84.87129015030136
71642;BME280;60657;50.122;14.468;2023-02-03T10:09:06;98277.22358410803;;;6.470588235294116;84.92851148241398
71642;BME280;60657;50.122;14.468;2023-02-03T10:12:34;98269.71919755611;;;6.438544289311054;85.11352712291142
71642;BME280;60657;50.122;14.468;2023-02-03T10:15:59;98266.57216043309;;;6.521324483100635;84.94949263752193
71642;BME280;60657;50.122;14.468;2023-02-03T10:19:24;98246.81108035169;;;6.572060730907147;84.56420233463035
71642;BME280;60657;50.122;14.468;2023-02-03T10:22:49;98257.58051381909;;;6.612115663385978;84.1598382543679
71642;BME280;60657;50.122;14.468;2023-02-03T10:26:03;98244.46592495273;;;6.721599145494771;83.92713817044327
71642;BME280;60657;50.122;14.468;2023-02-03T10:29:17;98241.19557650303;;;6.724269474326697;83.67536430914778
71642;BME280;60657;50.122;14.468;2023-02-03T10:32:27;98220.59569361544;;;6.7456321049820716;83.24048218509193
71642;BME280;60657;50.122;14.468;2023-02-03T10:35:35;98212.406363404;;;6.852445258258946;83.23666742961777
71642;BME280;60657;50.122;14.468;2023-02-03T10:38:55;98219.9346992214;;;6.905851834897383;82.95819028000305
71642;BME280;60657;50.122;14.468;2023-02-03T10:42:10;98210.89351201193;;;6.881818875410083;82.35164415960936
71642;BME280;60657;50.122;14.468;2023-02-03T10:45:19;98214.24889496031;;;6.937895780880446;82.18951705195697
71642;BME280;60657;50.122;14.468;2023-02-03T10:48:27;98195.3443399496;;;7.071412222476539;82.01403830014496
71642;BME280;60657;50.122;14.468;2023-02-03T10:51:35;98197.86611633252;;;7.1408407721065075;81.63637750820172
71642;BME280;60657;50.122;14.468;2023-02-03T10:54:49;98183.04775974978;;;7.167544060425726;81.5066758220798
71642;BME280;60657;50.122;14.468;2023-02-03T10:57:56;98178.14954184256;;;7.183566033417257;80.51674677653162
71642;BME280;60657;50.122;14.468;2023-02-03T11:01:14;98167.46367829239;;;7.293049515526057;80.47859922178988
71642;BME280;60657;50.122;14.468;2023-02-03T11:04:26;98145.99606348481;;;7.266346227206839;80.00938429846647
71642;BME280;60657;50.122;14.468;2023-02-03T11:07:36;98147.68150212825;;;7.306401159685663;79.14152742809186
71642;BME280;60657;50.122;14.468;2023-02-03T11:10:43;98139.51475423659;;;7.4265659571221505;79.1644159609369
71642;BME280;60657;50.122;14.468;2023-02-03T11:13:51;98138.7080695531;;;7.378500038147557;79.0308995193408
71642;BME280;60657;50.122;14.468;2023-02-03T11:17:04;98118.06359532017;;;7.447928587777525;79.30365453574426
71642;BME280;60657;50.122;14.468;2023-02-03T11:20:14;98119.72310412288;;;7.418554970626381;78.443427176318
71642;BME280;60657;50.122;14.468;2023-02-03T11:23:24;98108.23406908571;;;7.576104371709775;78.1783016708629
71642;BME280;60657;50.122;14.468;2023-02-03T11:26:33;98094.15171980162;;;7.5146868085755685;77.8101777676051
71642;BME280;60657;50.122;14.468;2023-02-03T11:29:46;98085.96337982982;;;7.613488975356681;77.43442435339895
71642;BME280;60657;50.122;14.468;2023-02-03T11:32:59;98076.87700910737;;;7.653543907835505;77.53551537346456
71642;BME280;60657;50.122;14.468;2023-02-03T11:36:09;98071.91022748065;;;7.578774700541693;78.21263447013047
71642;BME280;60657;50.122;14.468;2023-02-03T11:39:20;98070.2335646242;;;7.509346150911725;78.79247730220493
71642;BME280;60657;50.122;14.468;2023-02-03T11:42:34;98070.20575766024;;;7.4452582589456;79.24261844815747
71642;BME280;60657;50.122;14.468;2023-02-03T11:45:43;98061.14792778385;;;7.549401083390556;78.51972228580148
71642;BME280;60657;50.122;14.468;2023-02-03T11:48:58;98057.89160293697;;;7.621499961852443;78.44724193179218
71642;BME280;60657;50.122;14.468;2023-02-03T11:52:21;98055.4289542775;;;7.621499961852443;77.81208514534218
71642;BME280;60657;50.122;14.468;2023-02-03T11:55:50;98057.07078321495;;;7.648203250171662;77.93415732051575
71642;BME280;60657;50.122;14.468;2023-02-03T11:59:24;98063.70387694916;;;7.642862592507818;77.6461432822156
71642;BME280;60657;50.122;14.468;2023-02-03T12:02:54;98047.20861469899;;;7.658884565499349;77.07392996108949